Gaz Venture — 3FLQ4 — position and weather

sailwx.info

Track history (hours):
 
Tides and Currents Weather Stations Pressure Air Temp Water Temp Dewpoint Dewpoint Depression Visibility Wind Speed Wind Dir Waves Ship Positions

Gaz Venture

Last reported at 2017-Nov-22 19:29 UTC. Time now 2017-Nov-23 03:44 UTC.
Position N 34°39' E 033°05'.

Length 120 m; draft 8 m.

Type: Ship (hazmat cat C). MMSI: 356141000.

Date/timePositionNaut miles runAvg speedWind from/ knotsBaromVisibWave heightAir tempDewpointWater temp
2017-Nov-22 19:29N 34°39' E 033°05'  
2017-Nov-16 01:15N 35°56' E 014°48'413.4
2017-Nov-16 00:59N 35°56' E 014°44'612.7
2017-Nov-16 00:30N 35°57' E 014°36'2 3.2
2017-Nov-16 00:00N 35°57' E 014°34'1 2.5
2017-Nov-15 23:30N 35°57' E 014°36'2 3.4
2017-Nov-15 23:00N 35°56' E 014°38'4 7.6
2017-Nov-15 22:30N 35°53' E 014°41'913.0
2017-Nov-15 21:49N 35°45' E 014°39'814.4
2017-Nov-15 21:17N 35°38' E 014°35'414.6
2017-Nov-15 20:59N 35°34' E 014°32'714.5
2017-Nov-15 20:30N 35°29' E 014°27'  
Track history (hours):
 
Tides and Currents Weather Stations Pressure Air Temp Water Temp Dewpoint Dewpoint Depression Visibility Wind Speed Wind Dir Waves Ship Positions

Gaz Venture

Last reported at 2017-Nov-22 19:29 UTC. Time now 2017-Nov-23 03:44 UTC.
Position N 34°39' E 033°05'.

Length 120 m; draft 8 m.

Type: Ship (hazmat cat C). MMSI: 356141000.

Date/timePositionNaut miles runAvg speedWind from/ knotsBaromVisibWave heightAir tempDewpointWater temp
2017-Nov-22 19:29N 34°39' E 033°05'  
2017-Nov-16 01:15N 35°56' E 014°48'413.4
2017-Nov-16 00:59N 35°56' E 014°44'612.7
2017-Nov-16 00:30N 35°57' E 014°36'2 3.2
2017-Nov-16 00:00N 35°57' E 014°34'1 2.5
2017-Nov-15 23:30N 35°57' E 014°36'2 3.4
2017-Nov-15 23:00N 35°56' E 014°38'4 7.6
2017-Nov-15 22:30N 35°53' E 014°41'913.0
2017-Nov-15 21:49N 35°45' E 014°39'814.4
2017-Nov-15 21:17N 35°38' E 014°35'414.6
2017-Nov-15 20:59N 35°34' E 014°32'714.5
2017-Nov-15 20:30N 35°29' E 014°27'  

Dump ship's entire track history